Time;durP1;ratioP1;P1;durP2;ratioP2;P2;SDS_P1;SDS_P2;PMS_P1;PMS_P2;Temp;Humidity;BMP_temperature;BMP_pressure;BME280_temperature;BME280_humidity;BME280_pressure;Samples;Min_cycle;Max_cycle;Signal;HPM_P1;HPM_P2
2021/12/21 00:00:12;;;;;;;13.23;4.85;;;;;;;-3.54;54.36;102824.78;4955699;28;20065;-66
2021/12/21 00:02:40;;;;;;;18.42;5.28;;;;;;;-3.70;54.35;102823.16;4979919;28;20443;-66
2021/12/21 00:05:06;;;;;;;6.88;3.85;;;;;;;-3.78;54.58;102824.44;4973223;28;20117;-66
2021/12/21 00:07:32;;;;;;;5.40;3.42;;;;;;;-3.73;54.42;102828.09;4951170;28;20169;-66
2021/12/21 00:09:57;;;;;;;8.25;4.18;;;;;;;-3.55;54.26;102828.13;4963638;28;20165;-66
2021/12/21 00:12:26;;;;;;;5.78;3.67;;;;;;;-3.49;54.33;102820.78;4970714;28;20982;-67
2021/12/21 00:23:11;;;;;;;4.25;2.83;;;;;;;-3.69;54.72;102824.03;4970317;28;20034;-68
2021/12/21 00:25:22;;;;;;;4.53;2.83;;;;;;;-3.59;54.91;102825.34;4956681;28;20545;-66
2021/12/21 00:27:51;;;;;;;8.30;2.85;;;;;;;-3.49;54.50;102813.09;4952629;28;20054;-66
2021/12/21 00:30:17;;;;;;;5.68;3.45;;;;;;;-3.49;54.45;102815.66;4971195;28;20035;-66
2021/12/21 00:32:43;;;;;;;5.43;2.92;;;;;;;-3.55;54.15;102815.34;4956992;28;20165;-69
2021/12/21 00:35:09;;;;;;;6.15;3.03;;;;;;;-3.63;54.04;102819.22;4969899;28;20069;-69
2021/12/21 00:37:36;;;;;;;7.70;3.38;;;;;;;-3.69;54.25;102818.91;4970590;28;20043;-70
2021/12/21 00:40:03;;;;;;;7.30;3.78;;;;;;;-3.79;54.41;102819.22;4972064;28;20030;-69
2021/12/21 00:42:28;;;;;;;7.80;3.72;;;;;;;-3.79;54.62;102817.53;4972028;28;20065;-68
2021/12/21 00:44:54;;;;;;;4.47;3.10;;;;;;;-3.72;54.59;102817.09;4969714;28;20035;-70
2021/12/21 00:47:19;;;;;;;7.13;3.63;;;;;;;-3.79;54.58;102816.69;4971511;28;20053;-69
2021/12/21 00:49:46;;;;;;;7.07;2.45;;;;;;;-3.91;54.60;102810.16;4961057;28;20093;-69
2021/12/21 00:52:14;;;;;;;6.05;2.67;;;;;;;-3.94;54.88;102812.56;4971582;28;20074;-70
2021/12/21 00:54:40;;;;;;;4.00;2.80;;;;;;;-3.81;54.68;102810.59;4974330;28;20086;-69
2021/12/21 00:57:05;;;;;;;7.22;3.30;;;;;;;-3.75;54.51;102805.81;4958130;28;20106;-69
2021/12/21 00:59:32;;;;;;;5.78;3.20;;;;;;;-3.74;54.38;102805.91;4971688;28;20043;-69
2021/12/21 01:01:59;;;;;;;9.25;3.72;;;;;;;-3.77;54.23;102805.72;4971844;28;20038;-69
2021/12/21 01:04:31;;;;;;;5.57;3.42;;;;;;;-3.87;54.14;102803.53;4970587;28;20035;-69
2021/12/21 01:07:14;;;;;;;;;;;;;;;-3.94;54.52;102807.44;4971123;28;20042;-69
2021/12/21 01:12:40;;;;;;;8.00;3.60;;;;;;;-3.76;54.31;102802.41;4968121;28;20065;-68
2021/12/21 01:18:00;;;;;;;6.75;3.67;;;;;;;-3.98;54.37;102795.31;4944830;28;20101;-69
2021/12/21 01:20:40;;;;;;;6.35;3.42;;;;;;;-4.08;54.50;102800.75;4972819;28;20031;-70
2021/12/21 01:23:48;;;;;;;5.00;2.50;;;;;;;-4.09;54.57;102799.88;4958025;28;20220;-69
2021/12/21 01:28:59;;;;;;;7.78;4.03;;;;;;;-3.97;54.58;102797.06;4949577;28;20050;-69
2021/12/21 01:36:45;;;;;;;5.85;3.05;;;;;;;-3.83;54.41;102799.44;4969420;28;20027;-65
2021/12/21 01:39:29;;;;;;;6.53;4.10;;;;;;;-3.96;54.43;102798.81;4967977;28;20050;-66
2021/12/21 01:42:52;;;;;;;6.53;4.03;;;;;;;-3.84;54.81;102805.34;4966317;28;20053;-66
2021/12/21 01:49:53;;;;;;;7.05;3.75;;;;;;;-3.92;54.23;102790.53;4969245;28;20038;-66
2021/12/21 01:52:24;;;;;;;7.78;3.83;;;;;;;-4.03;54.37;102781.44;4968641;28;20062;-66
2021/12/21 01:54:51;;;;;;;7.67;2.50;;;;;;;-4.03;54.33;102788.19;4966424;28;20070;-66
2021/12/21 01:57:17;;;;;;;3.97;2.28;;;;;;;-3.97;54.63;102785.97;4969463;28;20493;-64
2021/12/21 01:59:44;;;;;;;5.32;3.42;;;;;;;-3.98;54.29;102777.44;4950486;28;20121;-65
2021/12/21 02:02:13;;;;;;;7.65;3.75;;;;;;;-3.94;53.91;102773.38;4968367;28;20409;-65
2021/12/21 02:04:41;;;;;;;8.65;2.78;;;;;;;-4.07;54.24;102778.66;4956464;28;20104;-66
2021/12/21 02:07:09;;;;;;;7.93;3.85;;;;;;;-4.08;54.16;102775.19;4967436;28;20046;-66
2021/12/21 02:09:38;;;;;;;5.93;2.88;;;;;;;-4.09;54.18;102768.34;4952079;28;20072;-66
2021/12/21 02:12:10;;;;;;;7.20;3.60;;;;;;;-4.11;54.16;102770.81;4954721;28;20043;-66
2021/12/21 02:14:37;;;;;;;8.00;2.88;;;;;;;-4.21;54.54;102765.16;4952912;28;20527;-65
2021/12/21 02:19:57;;;;;;;9.10;3.97;;;;;;;-4.15;54.27;102765.47;4949959;28;20049;-66
2021/12/21 02:22:25;;;;;;;6.18;3.00;;;;;;;-4.15;54.32;102760.38;4968044;28;20509;-66
2021/12/21 02:25:18;;;;;;;3.92;2.70;;;;;;;-3.97;54.14;102765.53;4957108;28;20041;-65
2021/12/21 02:27:54;;;;;;;7.78;3.35;;;;;;;-4.12;54.06;102765.63;4940550;28;20054;-66
2021/12/21 02:30:19;;;;;;;5.00;2.92;;;;;;;-4.09;54.08;102753.03;4966761;28;20031;-66
2021/12/21 02:32:45;;;;;;;4.63;3.42;;;;;;;-4.18;54.40;102750.00;4966838;28;20503;-66
2021/12/21 02:35:11;;;;;;;4.20;3.05;;;;;;;-4.11;54.37;102747.81;4966825;28;20030;-65
2021/12/21 02:37:36;;;;;;;10.00;3.40;;;;;;;-4.08;54.02;102752.22;4967738;28;20453;-67
2021/12/21 02:40:04;;;;;;;5.60;2.50;;;;;;;-4.00;54.03;102750.06;4969471;28;20412;-66
2021/12/21 02:42:29;;;;;;;4.93;3.05;;;;;;;-3.89;53.99;102749.78;4969043;28;20046;-66
2021/12/21 02:44:55;;;;;;;5.25;2.90;;;;;;;-3.97;54.00;102751.06;4970054;28;20036;-66
2021/12/21 02:47:20;;;;;;;4.47;2.65;;;;;;;-3.88;54.04;102753.22;4966315;28;20356;-66
2021/12/21 02:49:46;;;;;;;5.28;2.20;;;;;;;-3.88;54.10;102759.19;4967775;28;20591;-66
2021/12/21 02:52:11;;;;;;;5.25;2.63;;;;;;;-3.75;53.84;102757.25;4967161;28;20046;-65
2021/12/21 02:54:36;;;;;;;3.80;2.45;;;;;;;-3.77;53.93;102754.63;4967437;28;20560;-66
2021/12/21 02:57:02;;;;;;;5.97;2.78;;;;;;;-3.78;53.55;102745.22;4953510;28;20054;-67
2021/12/21 02:59:27;;;;;;;4.57;2.55;;;;;;;-3.80;53.72;102748.50;4961097;28;20256;-66
2021/12/21 03:01:53;;;;;;;3.15;2.10;;;;;;;-3.96;53.51;102746.88;4970824;28;20244;-65
2021/12/21 03:04:19;;;;;;;4.97;2.38;;;;;;;-4.04;53.86;102741.34;4968274;28;20046;-66
2021/12/21 03:09:43;;;;;;;4.30;2.45;;;;;;;-3.97;53.86;102739.97;4968787;28;20035;-66
2021/12/21 03:12:34;;;;;;;4.55;2.38;;;;;;;-3.95;53.59;102746.91;4969043;28;20054;-66
2021/12/21 03:14:59;;;;;;;7.20;2.63;;;;;;;-4.12;53.71;102740.06;4969410;28;20038;-66
2021/12/21 03:17:25;;;;;;;4.97;2.90;;;;;;;-4.08;53.95;102742.00;4968871;28;20053;-65
2021/12/21 03:19:50;;;;;;;5.18;3.35;;;;;;;-3.97;53.65;102739.97;4969639;28;20030;-67
2021/12/21 03:22:17;;;;;;;6.20;3.15;;;;;;;-4.10;53.96;102734.28;4949583;28;20568;-66
2021/12/21 03:24:43;;;;;;;3.50;3.10;;;;;;;-4.05;53.83;102736.16;4958960;28;20041;-66
2021/12/21 03:27:10;;;;;;;3.45;2.95;;;;;;;-4.09;53.74;102730.03;4969775;28;20492;-65
2021/12/21 03:29:35;;;;;;;5.68;2.45;;;;;;;-4.04;53.71;102738.78;4967920;28;20042;-65
2021/12/21 03:32:01;;;;;;;4.65;2.60;;;;;;;-3.99;53.63;102732.22;4967817;28;20093;-65
2021/12/21 03:34:27;;;;;;;4.13;2.33;;;;;;;-4.07;53.68;102728.44;4947794;28;20122;-66
2021/12/21 03:36:53;;;;;;;4.88;2.67;;;;;;;-3.93;53.60;102722.31;4966245;28;20022;-66
2021/12/21 03:39:20;;;;;;;6.53;3.70;;;;;;;-4.10;53.48;102724.06;4971037;28;20366;-66
2021/12/21 03:41:55;;;;;;;4.38;2.53;;;;;;;-4.17;53.58;102727.06;4953757;28;20306;-66
2021/12/21 03:44:21;;;;;;;4.57;3.08;;;;;;;-4.22;53.71;102727.66;4971652;28;20026;-66
2021/12/21 03:46:50;;;;;;;4.80;2.75;;;;;;;-4.27;53.76;102729.97;4969900;28;20539;-67
2021/12/21 03:52:09;;;;;;;4.93;2.65;;;;;;;-4.11;53.67;102732.50;4944007;28;20043;-66
2021/12/21 03:54:36;;;;;;;10.98;3.55;;;;;;;-4.21;53.93;102725.19;4962387;28;20031;-69
2021/12/21 03:57:02;;;;;;;4.80;2.35;;;;;;;-4.26;53.87;102730.84;4960395;28;20034;-66
2021/12/21 03:59:28;;;;;;;4.47;2.92;;;;;;;-4.33;54.25;102732.22;4960566;28;20146;-66
2021/12/21 04:01:54;;;;;;;10.68;3.30;;;;;;;-4.21;54.23;102730.31;4971640;28;20049;-67
2021/12/21 04:04:21;;;;;;;3.22;2.20;;;;;;;-4.18;53.99;102720.22;4969288;28;20222;-67
2021/12/21 04:06:47;;;;;;;3.65;2.25;;;;;;;-4.11;53.71;102722.28;4970563;28;20073;-66
2021/12/21 04:09:13;;;;;;;5.53;2.88;;;;;;;-4.09;53.45;102724.94;4971844;28;20134;-66
2021/12/21 04:11:38;;;;;;;4.88;2.95;;;;;;;-3.94;53.27;102722.28;4957795;28;20046;-66
2021/12/21 04:14:05;;;;;;;7.10;3.53;;;;;;;-4.08;53.90;102713.91;4971514;28;20049;-67
2021/12/21 04:16:30;;;;;;;5.72;1.98;;;;;;;-4.02;53.79;102721.88;4952914;28;20086;-66
2021/12/21 04:18:56;;;;;;;7.80;2.42;;;;;;;-3.91;53.77;102710.50;4969385;28;20132;-68
2021/12/21 04:21:22;;;;;;;6.57;3.00;;;;;;;-3.80;53.91;102707.63;4954108;28;20117;-68
2021/12/21 04:23:47;;;;;;;8.38;2.67;;;;;;;-3.68;53.62;102709.06;4969996;28;20050;-70
2021/12/21 04:26:16;;;;;;;8.18;4.10;;;;;;;-3.67;53.82;102712.53;4971053;28;20038;-70
2021/12/21 04:28:43;;;;;;;10.88;3.40;;;;;;;-3.83;53.61;102712.56;4970217;28;20038;-70
2021/12/21 04:31:10;;;;;;;14.85;5.47;;;;;;;-3.92;53.65;102719.00;4971101;28;20505;-70
2021/12/21 04:33:38;;;;;;;8.70;3.38;;;;;;;-3.87;53.93;102711.56;4972549;28;20042;-71
2021/12/21 04:36:05;;;;;;;19.85;3.97;;;;;;;-3.91;54.08;102720.72;4952925;28;20058;-72
2021/12/21 04:38:35;;;;;;;30.48;6.05;;;;;;;-4.03;54.16;102720.13;4960627;28;20040;-70
2021/12/21 04:41:11;;;;;;;27.60;5.00;;;;;;;-3.93;54.41;102719.78;4969719;28;20420;-69
2021/12/21 04:43:37;;;;;;;11.43;4.68;;;;;;;-3.79;54.26;102717.03;4971259;28;20046;-71
2021/12/21 04:46:03;;;;;;;9.82;4.13;;;;;;;-3.82;53.79;102714.34;4971628;28;20045;-69
2021/12/21 04:48:29;;;;;;;9.80;4.00;;;;;;;-3.78;53.73;102711.13;4962135;28;20637;-70
2021/12/21 04:50:55;;;;;;;7.13;3.63;;;;;;;-4.00;54.06;102717.72;4971096;28;20026;-70
2021/12/21 04:53:21;;;;;;;7.97;3.80;;;;;;;-3.85;54.26;102714.16;4956493;28;20106;-70
2021/12/21 04:55:46;;;;;;;6.18;3.20;;;;;;;-3.84;54.14;102721.03;4952645;28;20044;-70
2021/12/21 04:58:12;;;;;;;9.82;4.20;;;;;;;-3.86;54.04;102722.63;4942506;28;20842;-70
2021/12/21 05:00:39;;;;;;;7.82;4.35;;;;;;;-3.98;54.20;102723.78;4968916;28;20570;-67
2021/12/21 05:03:05;;;;;;;4.45;3.28;;;;;;;-3.88;53.94;102725.97;4969759;28;20066;-67
2021/12/21 05:05:31;;;;;;;8.13;4.10;;;;;;;-4.08;54.18;102716.44;4959810;28;20038;-68
2021/12/21 05:08:11;;;;;;;10.43;3.55;;;;;;;-3.91;54.38;102718.19;4970091;28;20168;-68
2021/12/21 05:10:49;;;;;;;5.70;4.20;;;;;;;-3.79;53.94;102711.91;4971048;28;20097;-69
2021/12/21 05:13:16;;;;;;;6.70;3.83;;;;;;;-3.76;54.15;102717.19;4971184;28;20301;-69
2021/12/21 05:15:42;;;;;;;11.77;4.05;;;;;;;-3.79;54.04;102714.47;4951778;28;20034;-68
2021/12/21 05:18:09;;;;;;;7.10;3.70;;;;;;;-3.74;53.92;102713.00;4970354;28;20060;-69
2021/12/21 05:20:34;;;;;;;4.18;3.72;;;;;;;-3.71;53.85;102713.16;4967909;28;20067;-69
2021/12/21 05:23:00;;;;;;;6.75;4.05;;;;;;;-3.75;53.66;102719.81;4972058;28;20129;-69
2021/12/21 05:25:25;;;;;;;7.65;3.45;;;;;;;-3.72;53.48;102717.41;4952189;28;20050;-69
2021/12/21 05:27:51;;;;;;;6.55;3.15;;;;;;;-3.80;53.76;102725.50;4972226;28;20073;-69
2021/12/21 05:30:16;;;;;;;5.93;2.97;;;;;;;-3.81;53.83;102711.81;4957049;28;20037;-69
2021/12/21 05:32:42;;;;;;;9.98;3.80;;;;;;;-3.84;53.89;102719.34;4970622;28;20552;-69
2021/12/21 05:35:09;;;;;;;8.55;3.47;;;;;;;-3.83;53.74;102717.66;4969599;28;20096;-68
2021/12/21 05:37:37;;;;;;;7.60;3.85;;;;;;;-3.85;53.63;102717.63;4967398;28;20052;-69
2021/12/21 05:40:13;;;;;;;5.82;4.25;;;;;;;-3.98;53.96;102711.00;4970854;28;20031;-69
2021/12/21 05:42:39;;;;;;;9.02;4.03;;;;;;;-3.83;53.95;102712.56;4967223;28;20646;-70
2021/12/21 05:45:06;;;;;;;7.22;4.25;;;;;;;-3.93;53.62;102698.47;4970857;28;20081;-69
2021/12/21 05:47:31;;;;;;;7.90;4.25;;;;;;;-4.14;53.58;102701.72;4970968;28;20114;-68
2021/12/21 05:49:57;;;;;;;7.38;4.50;;;;;;;-4.26;53.99;102702.75;4978992;28;20093;-67
2021/12/21 05:52:22;;;;;;;6.78;3.58;;;;;;;-4.37;54.24;102705.63;4979396;28;20228;-67
2021/12/21 05:54:49;;;;;;;11.82;4.57;;;;;;;-4.44;54.49;102706.13;4976212;28;20137;-67
2021/12/21 05:57:15;;;;;;;8.15;4.10;;;;;;;-4.39;54.43;102702.16;4969515;28;20069;-67
2021/12/21 05:59:40;;;;;;;6.43;3.67;;;;;;;-4.22;54.19;102703.00;4971021;28;20045;-68
2021/12/21 06:02:06;;;;;;;6.97;4.45;;;;;;;-4.28;54.10;102704.34;4968986;28;20046;-66
2021/12/21 06:04:31;;;;;;;8.13;5.57;;;;;;;-4.41;54.20;102703.75;4966639;28;20034;-67
2021/12/21 06:06:57;;;;;;;6.93;3.65;;;;;;;-4.48;54.15;102704.22;4943851;28;20129;-67
2021/12/21 06:09:23;;;;;;;6.43;4.85;;;;;;;-4.51;54.29;102704.94;4970063;28;20430;-66
2021/12/21 06:12:17;;;;;;;8.02;4.50;;;;;;;-4.50;54.29;102713.47;4967024;28;20085;-65
2021/12/21 06:27:34;;;;;;;12.25;5.68;;;;;;;-4.81;55.02;102723.72;4966257;28;20034;-69
2021/12/21 06:30:00;;;;;;;10.77;5.13;;;;;;;-4.77;54.85;102724.00;4970685;28;20058;-67
2021/12/21 06:32:25;;;;;;;9.50;4.30;;;;;;;-5.01;54.92;102723.56;4969209;28;20282;-68
2021/12/21 06:34:51;;;;;;;19.42;4.80;;;;;;;-4.84;54.92;102727.00;4960033;28;20037;-69
2021/12/21 06:37:17;;;;;;;8.77;4.68;;;;;;;-4.91;55.14;102724.94;4949965;28;20583;-69
2021/12/21 06:39:43;;;;;;;6.90;4.68;;;;;;;-4.89;55.17;102725.03;4969184;28;20015;-67
2021/12/21 06:42:09;;;;;;;8.98;5.57;;;;;;;-4.79;54.95;102729.78;4967841;28;20414;-70
2021/12/21 06:44:37;;;;;;;8.10;4.28;;;;;;;-4.81;54.88;102732.28;4954916;28;20138;-69
2021/12/21 06:52:32;;;;;;;8.25;4.78;;;;;;;-5.07;55.27;102730.00;4950166;28;20045;-65
2021/12/21 06:54:58;;;;;;;7.15;5.25;;;;;;;-5.01;55.67;102723.56;4968683;28;20030;-65
2021/12/21 06:57:24;;;;;;;9.80;5.13;;;;;;;-4.89;55.05;102728.44;4969237;28;20114;-65
2021/12/21 06:59:50;;;;;;;7.32;5.00;;;;;;;-4.90;54.96;102726.69;4966987;28;20504;-66
2021/12/21 07:02:15;;;;;;;7.25;4.85;;;;;;;-4.91;54.88;102719.81;4970082;28;20667;-70
2021/12/21 07:04:41;;;;;;;7.35;4.65;;;;;;;-4.89;55.01;102720.78;4967162;28;20487;-68
2021/12/21 07:07:09;;;;;;;5.85;4.60;;;;;;;-4.90;54.99;102725.78;4955445;28;20053;-69
2021/12/21 07:09:41;;;;;;;6.85;4.75;;;;;;;-4.84;55.01;102724.44;4964081;28;20473;-69
2021/12/21 07:12:32;;;;;;;8.30;4.72;;;;;;;-4.76;55.00;102722.31;4968838;28;20050;-69
2021/12/21 07:20:21;;;;;;;9.18;5.13;;;;;;;-4.63;54.58;102723.84;4964366;28;20059;-69
2021/12/21 07:22:47;;;;;;;6.45;5.20;;;;;;;-4.64;54.90;102722.09;4953167;28;20553;-71
2021/12/21 07:25:12;;;;;;;6.63;4.95;;;;;;;-4.60;54.68;102724.00;4970659;28;20096;-70
2021/12/21 07:27:38;;;;;;;6.80;5.68;;;;;;;-4.55;54.96;102723.44;4973427;28;20151;-70
2021/12/21 07:30:06;;;;;;;7.28;5.15;;;;;;;-4.53;54.48;102724.41;4973207;28;20043;-70
2021/12/21 07:32:31;;;;;;;6.88;5.00;;;;;;;-4.51;54.39;102724.47;4969186;28;20068;-67
2021/12/21 07:34:57;;;;;;;9.52;5.85;;;;;;;-4.47;54.56;102716.19;4970658;28;20504;-67
2021/12/21 07:37:25;;;;;;;6.82;5.68;;;;;;;-4.48;54.50;102726.31;4956311;28;20035;-67
2021/12/21 07:39:51;;;;;;;11.00;5.65;;;;;;;-4.63;54.85;102724.72;4971475;28;20038;-67
2021/12/21 07:42:19;;;;;;;11.50;5.88;;;;;;;-4.60;54.67;102729.97;4972309;28;20941;-67
2021/12/21 07:44:45;;;;;;;6.25;5.07;;;;;;;-4.68;55.30;102720.16;4951837;28;20022;-67
2021/12/21 07:47:11;;;;;;;7.25;5.00;;;;;;;-4.98;56.34;102725.41;4971974;28;20038;-68
2021/12/21 07:49:36;;;;;;;7.93;5.78;;;;;;;-4.75;55.72;102730.03;4971359;28;20045;-67
2021/12/21 07:52:03;;;;;;;9.95;4.95;;;;;;;-4.93;55.61;102719.72;4988311;23;20050;-66
2021/12/21 07:54:28;;;;;;;6.75;5.10;;;;;;;-4.96;56.27;102719.56;4969575;28;20034;-65
2021/12/21 07:56:54;;;;;;;6.75;4.45;;;;;;;-4.61;55.85;102712.94;4972378;28;20579;-65
2021/12/21 07:59:21;;;;;;;7.65;4.88;;;;;;;-4.97;56.10;102714.38;4958593;28;20516;-65
2021/12/21 08:01:47;;;;;;;7.53;5.05;;;;;;;-4.48;55.66;102714.41;4968508;28;20042;-65
2021/12/21 08:04:13;;;;;;;8.63;4.95;;;;;;;-4.57;55.31;102719.06;4967392;28;20105;-65
2021/12/21 08:06:39;;;;;;;7.45;5.05;;;;;;;-4.47;55.41;102721.28;4956013;28;20043;-65
2021/12/21 08:09:05;;;;;;;6.97;5.03;;;;;;;-4.33;55.34;102719.44;4963418;28;20037;-66
2021/12/21 08:14:01;;;;;;;7.03;4.63;;;;;;;-4.16;55.17;102718.63;4970310;28;20248;-65
2021/12/21 08:16:26;;;;;;;6.32;5.15;;;;;;;-3.91;54.94;102718.19;4971932;28;20652;-64
2021/12/21 08:18:52;;;;;;;8.80;5.13;;;;;;;-3.78;54.49;102716.25;4972924;28;20053;-65
2021/12/21 08:21:19;;;;;;;8.38;5.25;;;;;;;-3.65;54.30;102718.59;4972255;28;20030;-65
2021/12/21 08:23:45;;;;;;;8.13;5.72;;;;;;;-3.86;54.50;102718.41;4972247;28;20133;-65
2021/12/21 08:26:11;;;;;;;8.18;5.18;;;;;;;-3.98;55.14;102720.38;4963640;28;20046;-65
2021/12/21 08:28:37;;;;;;;6.43;5.47;;;;;;;-3.93;55.31;102716.34;4968830;28;20077;-65
2021/12/21 08:31:03;;;;;;;6.03;4.82;;;;;;;-3.88;54.99;102713.22;4954180;28;20087;-65
2021/12/21 08:33:29;;;;;;;9.35;4.65;;;;;;;-3.59;54.87;102715.44;4970720;28;20039;-66
2021/12/21 08:35:55;;;;;;;7.70;5.47;;;;;;;-3.58;54.44;102717.22;4965321;28;20050;-65
2021/12/21 08:38:20;;;;;;;7.78;5.32;;;;;;;-3.62;54.32;102718.72;4971240;28;20045;-65
2021/12/21 08:40:49;;;;;;;19.17;8.57;;;;;;;-3.59;54.28;102713.75;4972608;28;20046;-65
2021/12/21 08:43:27;;;;;;;11.10;7.47;;;;;;;-3.42;54.39;102712.00;4971708;28;20512;-65
2021/12/21 08:45:54;;;;;;;19.42;8.88;;;;;;;-3.24;54.54;102700.91;4971870;28;20389;-66
2021/12/21 08:48:20;;;;;;;13.63;6.25;;;;;;;-3.02;54.00;102702.78;4969747;28;20069;-64
2021/12/21 08:50:48;;;;;;;14.35;7.00;;;;;;;-2.78;52.42;102702.97;4973931;28;20038;-66
2021/12/21 08:53:15;;;;;;;10.68;7.35;;;;;;;-1.97;51.05;102698.81;4965900;28;20054;-65
2021/12/21 08:55:41;;;;;;;9.88;6.07;;;;;;;-1.72;51.49;102692.97;4971215;28;20547;-65
2021/12/21 08:58:07;;;;;;;10.32;6.28;;;;;;;-1.68;51.31;102696.56;4972730;28;20529;-66
2021/12/21 09:00:33;;;;;;;7.78;6.38;;;;;;;-1.78;51.24;102691.84;4962802;28;20030;-65
2021/12/21 09:02:59;;;;;;;11.98;7.25;;;;;;;-1.95;50.62;102701.44;4970104;28;20053;-65
2021/12/21 09:05:28;;;;;;;16.65;6.50;;;;;;;-2.34;49.94;102702.34;4952371;28;20236;-65
2021/12/21 09:07:54;;;;;;;10.23;5.95;;;;;;;-2.61;51.11;102703.75;4963360;28;20049;-65
2021/12/21 09:10:20;;;;;;;7.30;5.78;;;;;;;-2.53;51.38;102705.81;4968070;28;20157;-65
2021/12/21 09:12:46;;;;;;;10.48;6.95;;;;;;;-2.89;51.71;102703.38;4960413;28;20054;-65
2021/12/21 09:15:13;;;;;;;11.07;6.95;;;;;;;-2.90;51.04;102708.44;4965383;28;20044;-65
2021/12/21 09:17:40;;;;;;;10.43;6.13;;;;;;;-3.17;52.32;102706.34;4952666;28;20520;-65
2021/12/21 09:20:07;;;;;;;12.88;6.78;;;;;;;-3.39;53.01;102711.28;4947201;28;20058;-65
2021/12/21 09:22:33;;;;;;;10.60;7.20;;;;;;;-3.05;52.18;102722.28;4949417;28;20138;-65
2021/12/21 09:25:01;;;;;;;18.35;6.72;;;;;;;-2.47;51.45;102720.56;4968133;28;20610;-65
2021/12/21 09:27:27;;;;;;;12.35;6.97;;;;;;;-2.44;51.34;102718.16;4947960;28;20046;-65
2021/12/21 09:29:53;;;;;;;8.77;5.68;;;;;;;-2.26;50.87;102718.06;4964638;28;20496;-65
2021/12/21 09:32:18;;;;;;;9.02;6.68;;;;;;;-2.13;50.10;102727.16;4964913;28;20501;-65
2021/12/21 09:34:46;;;;;;;8.85;5.82;;;;;;;-2.38;50.01;102726.13;4964910;28;20139;-65
2021/12/21 09:37:19;;;;;;;11.48;6.35;;;;;;;-1.99;50.38;102732.88;4956505;28;20058;-63
2021/12/21 09:39:51;;;;;;;13.43;8.38;;;;;;;-1.01;50.09;102730.00;4956312;28;20468;-65
2021/12/21 09:42:23;;;;;;;14.90;7.83;;;;;;;-0.38;48.09;102729.72;4947131;28;22759;-63
2021/12/21 09:44:49;;;;;;;9.80;6.32;;;;;;;-0.52;45.46;102725.78;4947971;28;20344;-68
2021/12/21 09:47:16;;;;;;;10.68;6.18;;;;;;;0.21;46.70;102740.31;4944646;28;20061;-64
2021/12/21 09:49:43;;;;;;;16.08;7.28;;;;;;;0.39;44.41;102736.56;4957875;28;20129;-64
2021/12/21 09:52:11;;;;;;;9.52;6.50;;;;;;;-0.00;45.76;102734.44;4947284;28;22404;-64
2021/12/21 09:54:38;;;;;;;9.57;6.18;;;;;;;0.51;44.31;102738.66;4947655;28;20069;-66
2021/12/21 09:57:06;;;;;;;11.90;6.30;;;;;;;0.87;44.00;102739.78;4964479;28;20131;-64
2021/12/21 09:59:31;;;;;;;12.45;6.03;;;;;;;0.20;43.10;102735.97;4960370;28;20046;-63
2021/12/21 10:01:57;;;;;;;8.68;5.40;;;;;;;0.77;44.75;102735.22;4964490;28;20050;-64
2021/12/21 10:04:25;;;;;;;14.20;6.22;;;;;;;0.86;42.93;102734.63;4956333;28;20034;-64
2021/12/21 10:06:54;;;;;;;9.38;5.50;;;;;;;0.37;43.38;102733.09;4952704;28;20066;-64
2021/12/21 10:09:24;;;;;;;9.13;5.35;;;;;;;0.46;43.68;102733.38;4964205;28;20096;-64
2021/12/21 10:11:53;;;;;;;12.15;5.53;;;;;;;-0.22;45.79;102728.53;4967530;28;20948;-64
2021/12/21 10:14:23;;;;;;;9.65;6.85;;;;;;;-0.69;47.53;102732.88;4966214;28;20129;-66
2021/12/21 10:16:59;;;;;;;12.65;7.18;;;;;;;-0.40;46.82;102730.47;4971727;23;20095;-73
2021/12/21 10:19:26;;;;;;;17.42;6.85;;;;;;;0.02;46.49;102730.22;4965538;23;20059;-69
2021/12/21 10:21:51;;;;;;;10.52;6.30;;;;;;;0.19;46.05;102735.91;4953656;28;20199;-70
2021/12/21 10:24:28;;;;;;;9.00;5.93;;;;;;;0.44;45.48;102727.31;4980393;28;20517;-69
2021/12/21 10:27:10;;;;;;;9.73;5.05;;;;;;;-0.01;46.91;102725.84;4969889;28;20030;-69
2021/12/21 10:30:00;;;;;;;8.27;5.43;;;;;;;0.14;45.83;102730.59;4957311;28;20035;-70
2021/12/21 10:32:34;;;;;;;11.52;6.00;;;;;;;0.15;47.22;102737.53;4959174;28;20130;-70
2021/12/21 10:35:03;;;;;;;11.77;6.45;;;;;;;-0.45;47.80;102726.88;4975863;28;20031;-70
2021/12/21 10:37:37;;;;;;;11.15;5.35;;;;;;;0.04;47.88;102723.44;4961066;28;20054;-70
2021/12/21 10:40:31;;;;;;;9.77;5.85;;;;;;;0.21;47.09;102721.41;4951679;28;20054;-71
2021/12/21 10:43:05;;;;;;;12.75;6.20;;;;;;;0.09;47.10;102721.88;4965840;28;20069;-70
2021/12/21 10:45:42;;;;;;;13.65;6.20;;;;;;;-0.37;49.39;102716.06;4973613;28;20048;-71
2021/12/21 10:48:16;;;;;;;10.75;5.95;;;;;;;-0.08;48.01;102717.88;4974346;28;20051;-70
2021/12/21 10:50:47;;;;;;;8.85;6.88;;;;;;;-0.06;48.62;102719.66;4980330;28;20033;-70
2021/12/21 10:53:18;;;;;;;10.55;5.65;;;;;;;-0.44;49.47;102716.63;4964655;28;20505;-70
2021/12/21 10:55:44;;;;;;;12.55;6.22;;;;;;;-0.28;49.68;102719.75;4956701;28;20499;-69
2021/12/21 10:58:16;;;;;;;11.93;7.03;;;;;;;0.15;49.13;102714.38;4973153;28;20198;-69
2021/12/21 11:00:51;;;;;;;14.90;6.22;;;;;;;0.46;48.42;102718.81;4978300;28;20182;-70
2021/12/21 11:03:32;;;;;;;10.57;5.82;;;;;;;0.66;48.02;102716.88;4980647;28;20041;-70
2021/12/21 11:06:12;;;;;;;12.43;6.35;;;;;;;0.68;48.09;102717.78;4978638;28;20026;-70
2021/12/21 11:08:40;;;;;;;17.20;6.43;;;;;;;-0.19;49.42;102713.25;4991377;28;20624;-71
2021/12/21 11:11:24;;;;;;;25.08;8.57;;;;;;;0.12;49.63;102706.53;4994889;28;20116;-71
2021/12/21 11:14:02;;;;;;;10.95;6.15;;;;;;;0.39;49.18;102700.53;4978583;28;20783;-71
2021/12/21 11:16:43;;;;;;;13.43;6.57;;;;;;;0.65;48.78;102694.50;4989372;28;20018;-70
2021/12/21 11:19:10;;;;;;;13.95;6.88;;;;;;;0.42;49.49;102696.38;4958971;28;20126;-71
2021/12/21 11:21:36;;;;;;;10.57;6.05;;;;;;;0.61;48.23;102694.38;4957892;28;20027;-70
2021/12/21 11:24:05;;;;;;;9.50;5.55;;;;;;;0.31;49.25;102695.16;4976200;28;20084;-70
2021/12/21 11:26:32;;;;;;;12.60;6.80;;;;;;;0.55;49.27;102692.50;4977278;28;20023;-71
2021/12/21 11:29:02;;;;;;;14.10;7.55;;;;;;;1.15;48.37;102683.06;4977122;28;20050;-71
2021/12/21 11:31:28;;;;;;;12.88;7.05;;;;;;;1.23;47.75;102677.31;4983520;28;20027;-70
2021/12/21 11:33:58;;;;;;;17.90;6.75;;;;;;;1.23;47.92;102679.03;4967450;28;20100;-70
2021/12/21 11:39:10;;;;;;;16.48;8.50;;;;;;;1.44;47.40;102671.91;4992101;28;20053;-69
2021/12/21 11:41:37;;;;;;;13.88;7.50;;;;;;;1.40;46.98;102669.19;4992793;28;20129;-71
2021/12/21 11:44:12;;;;;;;14.00;7.45;;;;;;;1.96;47.14;102669.81;4977521;28;20019;-71
2021/12/21 11:47:06;;;;;;;13.25;7.15;;;;;;;1.82;46.54;102666.88;4988457;28;20777;-71
2021/12/21 11:49:45;;;;;;;14.35;6.30;;;;;;;1.78;46.75;102670.22;4974101;28;20046;-71
2021/12/21 11:52:17;;;;;;;18.48;8.23;;;;;;;2.06;45.72;102666.59;4973010;28;20045;-70
2021/12/21 11:55:12;;;;;;;15.13;9.40;;;;;;;1.91;45.94;102663.69;4979945;28;20042;-69
2021/12/21 11:57:42;;;;;;;13.05;5.93;;;;;;;1.72;46.28;102662.31;4975738;28;20047;-70
2021/12/21 12:00:11;;;;;;;12.15;6.10;;;;;;;1.77;46.14;102659.84;4976823;28;20049;-70
2021/12/21 12:02:42;;;;;;;10.75;5.95;;;;;;;1.40;47.22;102651.16;4971777;28;20189;-70
2021/12/21 12:05:24;;;;;;;11.45;6.47;;;;;;;1.36;47.37;102650.19;4982366;28;20464;-70
2021/12/21 12:08:19;;;;;;;14.05;6.47;;;;;;;1.31;48.20;102642.34;4979463;28;20108;-70
2021/12/21 12:10:57;;;;;;;12.15;6.22;;;;;;;1.26;47.66;102649.06;4968273;28;20070;-70
2021/12/21 12:13:32;;;;;;;12.13;6.75;;;;;;;0.64;49.17;102646.44;4973658;28;20182;-71
2021/12/21 12:16:06;;;;;;;13.18;6.55;;;;;;;0.69;50.20;102649.16;4975037;28;20829;-71
2021/12/21 12:18:41;;;;;;;15.00;6.32;;;;;;;0.83;49.49;102641.84;4971847;28;20142;-71
2021/12/21 12:21:25;;;;;;;16.35;6.40;;;;;;;1.17;49.23;102640.19;4956571;28;20075;-70
2021/12/21 12:23:58;;;;;;;13.05;5.95;;;;;;;1.20;49.37;102637.72;4956713;28;20042;-71
2021/12/21 12:26:28;;;;;;;9.60;5.20;;;;;;;1.33;48.58;102637.25;4943869;28;20027;-71
2021/12/21 12:29:15;;;;;;;10.95;5.72;;;;;;;1.14;49.26;102640.13;4975586;28;20140;-71
2021/12/21 12:31:46;;;;;;;12.43;6.80;;;;;;;0.72;50.13;102638.06;4975695;28;20053;-70
2021/12/21 12:34:23;;;;;;;13.55;5.65;;;;;;;1.13;49.33;102641.84;4961560;28;20053;-71
2021/12/21 12:36:54;;;;;;;10.80;4.93;;;;;;;1.17;48.85;102638.53;4953202;28;20069;-69